sensor_id;sensor_type;location;lat;lon;timestamp;temperature;humidity
11136;DHT22;5622;50.840;4.948;2024-01-07T10:00:51;3.20;99.90
11136;DHT22;5622;50.840;4.948;2024-01-07T10:03:24;3.10;99.90
11136;DHT22;5622;50.840;4.948;2024-01-07T10:05:52;3.20;99.90
11136;DHT22;5622;50.840;4.948;2024-01-07T10:08:20;2.90;99.90
11136;DHT22;5622;50.840;4.948;2024-01-07T10:13:54;3.10;99.90
11136;DHT22;5622;50.840;4.948;2024-01-07T10:20:14;3.00;99.90
11136;DHT22;5622;50.840;4.948;2024-01-07T11:18:00;4.20;99.90
11136;DHT22;5622;50.840;4.948;2024-01-07T16:59:31;1.40;99.90
11136;DHT22;5622;50.840;4.948;2024-01-07T17:02:04;3.10;99.90
11136;DHT22;5622;50.840;4.948;2024-01-07T17:04:32;1.30;99.90
11136;DHT22;5622;50.840;4.948;2024-01-07T17:10:28;1.40;99.90
11136;DHT22;5622;50.840;4.948;2024-01-07T17:12:55;1.40;99.90
11136;DHT22;5622;50.840;4.948;2024-01-07T17:15:28;2.10;99.90
11136;DHT22;5622;50.840;4.948;2024-01-07T17:18:03;1.40;99.90
11136;DHT22;5622;50.840;4.948;2024-01-07T17:20:32;1.50;99.90
11136;DHT22;5622;50.840;4.948;2024-01-07T17:23:04;1.50;99.90
11136;DHT22;5622;50.840;4.948;2024-01-07T17:25:31;1.50;99.90
11136;DHT22;5622;50.840;4.948;2024-01-07T17:27:58;1.50;99.90
11136;DHT22;5622;50.840;4.948;2024-01-07T17:30:27;1.50;99.90
11136;DHT22;5622;50.840;4.948;2024-01-07T17:36:25;1.50;99.90
11136;DHT22;5622;50.840;4.948;2024-01-07T17:42:26;1.50;99.90
11136;DHT22;5622;50.840;4.948;2024-01-07T17:45:13;1.50;99.90
11136;DHT22;5622;50.840;4.948;2024-01-07T17:47:41;1.50;99.90
11136;DHT22;5622;50.840;4.948;2024-01-07T17:50:11;1.50;99.90
11136;DHT22;5622;50.840;4.948;2024-01-07T17:52:38;1.40;99.90
11136;DHT22;5622;50.840;4.948;2024-01-07T17:55:08;1.20;99.90
11136;DHT22;5622;50.840;4.948;2024-01-07T17:57:37;1.40;99.90
11136;DHT22;5622;50.840;4.948;2024-01-07T18:00:08;1.50;99.90
11136;DHT22;5622;50.840;4.948;2024-01-07T18:02:40;1.40;99.90
11136;DHT22;5622;50.840;4.948;2024-01-07T18:05:27;1.40;99.90
11136;DHT22;5622;50.840;4.948;2024-01-07T18:24:48;1.50;99.90
11136;DHT22;5622;50.840;4.948;2024-01-07T18:30:40;1.50;99.90
11136;DHT22;5622;50.840;4.948;2024-01-07T18:36:16;1.50;99.90
11136;DHT22;5622;50.840;4.948;2024-01-07T18:39:07;1.50;99.90
11136;DHT22;5622;50.840;4.948;2024-01-07T18:41:37;1.50;99.90
11136;DHT22;5622;50.840;4.948;2024-01-07T18:44:04;1.40;99.90
11136;DHT22;5622;50.840;4.948;2024-01-07T18:46:34;1.40;99.90
11136;DHT22;5622;50.840;4.948;2024-01-07T18:52:26;1.50;99.90
11136;DHT22;5622;50.840;4.948;2024-01-07T18:54:56;1.50;99.90
11136;DHT22;5622;50.840;4.948;2024-01-07T18:57:28;1.40;99.90
11136;DHT22;5622;50.840;4.948;2024-01-07T19:03:31;1.50;99.90
11136;DHT22;5622;50.840;4.948;2024-01-07T19:09:29;1.40;99.90
11136;DHT22;5622;50.840;4.948;2024-01-07T19:15:24;1.40;99.90
11136;DHT22;5622;50.840;4.948;2024-01-07T19:21:14;1.50;99.90
11136;DHT22;5622;50.840;4.948;2024-01-07T19:27:14;1.50;99.90
11136;DHT22;5622;50.840;4.948;2024-01-07T19:33:16;1.50;99.90
11136;DHT22;5622;50.840;4.948;2024-01-07T19:39:39;1.50;99.90
11136;DHT22;5622;50.840;4.948;2024-01-07T19:45:52;1.50;99.90
11136;DHT22;5622;50.840;4.948;2024-01-07T19:51:50;1.50;99.90
11136;DHT22;5622;50.840;4.948;2024-01-07T19:54:17;2.10;99.90
11136;DHT22;5622;50.840;4.948;2024-01-07T19:57:03;2.50;99.90
11136;DHT22;5622;50.840;4.948;2024-01-07T20:02:57;1.40;99.90
11136;DHT22;5622;50.840;4.948;2024-01-07T20:08:54;1.30;99.90
11136;DHT22;5622;50.840;4.948;2024-01-07T20:14:49;1.20;99.90
11136;DHT22;5622;50.840;4.948;2024-01-07T20:20:54;1.20;99.90
11136;DHT22;5622;50.840;4.948;2024-01-07T20:23:40;1.40;99.90
11136;DHT22;5622;50.840;4.948;2024-01-07T20:26:08;1.10;99.90
11136;DHT22;5622;50.840;4.948;2024-01-07T20:28:37;1.10;99.90
11136;DHT22;5622;50.840;4.948;2024-01-07T20:34:28;1.10;99.90
11136;DHT22;5622;50.840;4.948;2024-01-07T20:36:55;1.10;99.90
11136;DHT22;5622;50.840;4.948;2024-01-07T20:39:22;1.00;99.90
11136;DHT22;5622;50.840;4.948;2024-01-07T20:41:52;1.00;99.90
11136;DHT22;5622;50.840;4.948;2024-01-07T20:44:20;1.00;99.90
11136;DHT22;5622;50.840;4.948;2024-01-07T20:47:02;1.00;99.90
11136;DHT22;5622;50.840;4.948;2024-01-07T20:49:49;1.10;99.90
11136;DHT22;5622;50.840;4.948;2024-01-07T20:52:16;1.10;99.90
11136;DHT22;5622;50.840;4.948;2024-01-07T20:54:46;1.40;99.90
11136;DHT22;5622;50.840;4.948;2024-01-07T20:57:15;1.00;99.90
11136;DHT22;5622;50.840;4.948;2024-01-07T20:59:43;1.30;99.90
11136;DHT22;5622;50.840;4.948;2024-01-07T21:02:11;1.00;99.90
11136;DHT22;5622;50.840;4.948;2024-01-07T21:04:42;1.00;99.90
11136;DHT22;5622;50.840;4.948;2024-01-07T21:10:35;1.00;99.90
11136;DHT22;5622;50.840;4.948;2024-01-07T21:13:04;1.00;99.90
11136;DHT22;5622;50.840;4.948;2024-01-07T21:15:32;1.00;99.90
11136;DHT22;5622;50.840;4.948;2024-01-07T21:18:01;1.00;99.90
11136;DHT22;5622;50.840;4.948;2024-01-07T21:20:29;1.30;99.90
11136;DHT22;5622;50.840;4.948;2024-01-07T21:22:56;1.00;99.90
11136;DHT22;5622;50.840;4.948;2024-01-07T21:25:24;0.80;99.90
11136;DHT22;5622;50.840;4.948;2024-01-07T21:27:51;0.90;99.90
11136;DHT22;5622;50.840;4.948;2024-01-07T21:30:24;2.10;99.90
11136;DHT22;5622;50.840;4.948;2024-01-07T21:32:51;2.30;99.90
11136;DHT22;5622;50.840;4.948;2024-01-07T21:35:22;1.40;99.90
11136;DHT22;5622;50.840;4.948;2024-01-07T21:37:49;0.80;99.90
11136;DHT22;5622;50.840;4.948;2024-01-07T21:40:16;2.10;99.90
11136;DHT22;5622;50.840;4.948;2024-01-07T21:42:44;1.50;99.90
11136;DHT22;5622;50.840;4.948;2024-01-07T21:45:11;0.70;99.90
11136;DHT22;5622;50.840;4.948;2024-01-07T21:47:39;1.00;99.90
11136;DHT22;5622;50.840;4.948;2024-01-07T21:50:07;-0.70;99.90
11136;DHT22;5622;50.840;4.948;2024-01-07T21:55:57;0.70;99.90
11136;DHT22;5622;50.840;4.948;2024-01-07T21:58:24;1.60;99.90
11136;DHT22;5622;50.840;4.948;2024-01-07T22:00:52;0.70;99.90
11136;DHT22;5622;50.840;4.948;2024-01-07T22:03:22;1.30;99.90
11136;DHT22;5622;50.840;4.948;2024-01-07T22:05:49;0.70;99.90
11136;DHT22;5622;50.840;4.948;2024-01-07T22:08:20;1.10;99.90
11136;DHT22;5622;50.840;4.948;2024-01-07T22:10:47;-0.20;99.90
11136;DHT22;5622;50.840;4.948;2024-01-07T22:13:14;0.70;99.90
11136;DHT22;5622;50.840;4.948;2024-01-07T22:15:43;1.00;99.90
11136;DHT22;5622;50.840;4.948;2024-01-07T22:18:13;0.60;99.90
11136;DHT22;5622;50.840;4.948;2024-01-07T22:20:42;0.60;99.90
11136;DHT22;5622;50.840;4.948;2024-01-07T22:23:09;0.70;99.90
11136;DHT22;5622;50.840;4.948;2024-01-07T22:25:38;0.70;99.90
11136;DHT22;5622;50.840;4.948;2024-01-07T22:28:07;0.60;99.90
11136;DHT22;5622;50.840;4.948;2024-01-07T22:30:36;0.40;99.90
11136;DHT22;5622;50.840;4.948;2024-01-07T22:33:08;0.60;99.90
11136;DHT22;5622;50.840;4.948;2024-01-07T22:35:37;0.60;99.90
11136;DHT22;5622;50.840;4.948;2024-01-07T22:38:05;-0.40;99.90
11136;DHT22;5622;50.840;4.948;2024-01-07T22:40:33;0.60;99.90
11136;DHT22;5622;50.840;4.948;2024-01-07T22:43:00;0.70;99.90
11136;DHT22;5622;50.840;4.948;2024-01-07T22:45:28;0.50;99.90
11136;DHT22;5622;50.840;4.948;2024-01-07T22:47:55;0.60;99.90
11136;DHT22;5622;50.840;4.948;2024-01-07T22:50:23;1.40;99.90
11136;DHT22;5622;50.840;4.948;2024-01-07T22:53:14;1.10;99.90
11136;DHT22;5622;50.840;4.948;2024-01-07T22:55:42;0.60;99.90
11136;DHT22;5622;50.840;4.948;2024-01-07T22:58:13;0.60;99.90
11136;DHT22;5622;50.840;4.948;2024-01-07T23:00:40;1.30;99.90
11136;DHT22;5622;50.840;4.948;2024-01-07T23:03:07;1.40;99.90
11136;DHT22;5622;50.840;4.948;2024-01-07T23:05:39;0.50;99.90
11136;DHT22;5622;50.840;4.948;2024-01-07T23:11:33;0.50;99.90
11136;DHT22;5622;50.840;4.948;2024-01-07T23:14:00;1.10;99.90
11136;DHT22;5622;50.840;4.948;2024-01-07T23:16:29;0.70;99.90
11136;DHT22;5622;50.840;4.948;2024-01-07T23:18:56;1.90;99.90
11136;DHT22;5622;50.840;4.948;2024-01-07T23:21:23;0.60;99.90
11136;DHT22;5622;50.840;4.948;2024-01-07T23:27:15;0.10;99.90
11136;DHT22;5622;50.840;4.948;2024-01-07T23:29:42;1.50;99.90
11136;DHT22;5622;50.840;4.948;2024-01-07T23:32:09;-0.40;99.90
11136;DHT22;5622;50.840;4.948;2024-01-07T23:34:37;0.40;99.90
11136;DHT22;5622;50.840;4.948;2024-01-07T23:37:07;1.10;99.90
11136;DHT22;5622;50.840;4.948;2024-01-07T23:39:34;0.30;99.90
11136;DHT22;5622;50.840;4.948;2024-01-07T23:45:26;0.40;99.90
11136;DHT22;5622;50.840;4.948;2024-01-07T23:50:57;0.40;99.90
11136;DHT22;5622;50.840;4.948;2024-01-07T23:53:26;0.30;99.90
11136;DHT22;5622;50.840;4.948;2024-01-07T23:55:53;1.00;99.90
11136;DHT22;5622;50.840;4.948;2024-01-07T23:58:20;0.40;99.90
